createdAt,value
2024-02-02T00:00:43.552Z,85996.16
2024-02-02T00:03:10.414Z,85995.59
2024-02-02T00:05:37.267Z,85998.25
2024-02-02T00:08:04.102Z,85992.69
2024-02-02T00:10:30.896Z,85991.34
2024-02-02T00:12:57.675Z,85996.63
2024-02-02T00:15:24.596Z,85992.69
2024-02-02T00:17:51.559Z,85994.09
2024-02-02T00:20:18.502Z,85994.75
2024-02-02T00:22:45.296Z,85998.91
2024-02-02T00:25:12.004Z,85994.66
2024-02-02T00:27:38.766Z,85993.94
2024-02-02T00:30:05.721Z,85992.69
2024-02-02T00:32:32.373Z,85993.84
2024-02-02T00:34:58.999Z,85987.78
2024-02-02T00:37:25.812Z,85985.03
2024-02-02T00:39:52.460Z,85982.88
2024-02-02T00:42:19.301Z,85977.50
2024-02-02T00:44:46.012Z,85985.06
2024-02-02T00:47:12.748Z,85987.03
2024-02-02T00:49:41.097Z,85989.88
2024-02-02T00:52:07.813Z,85986.97
2024-02-02T00:54:34.531Z,85980.25
2024-02-02T00:57:01.381Z,85973.44
2024-02-02T00:59:29.182Z,85974.09
2024-02-02T01:01:55.787Z,85972.03
2024-02-02T01:04:22.489Z,85969.13
2024-02-02T01:06:49.300Z,85972.03
2024-02-02T01:09:17.059Z,85964.34
2024-02-02T01:11:44.301Z,85962.25
2024-02-02T01:14:11.105Z,85965.09
2024-02-02T01:16:37.964Z,85963.66
2024-02-02T01:19:04.848Z,85960.44
2024-02-02T01:21:31.756Z,85951.41
2024-02-02T01:23:58.519Z,85948.72
2024-02-02T01:26:25.328Z,85948.00
2024-02-02T01:28:52.074Z,85945.09
2024-02-02T01:31:19.218Z,85941.25
2024-02-02T01:33:46.732Z,85940.38
2024-02-02T01:36:13.607Z,85939.16
2024-02-02T01:38:40.318Z,85929.50
2024-02-02T01:41:06.987Z,85928.00
2024-02-02T01:43:33.768Z,85929.34
2024-02-02T01:46:00.544Z,85927.34
2024-02-02T01:48:27.903Z,85923.38
2024-02-02T01:50:54.988Z,85916.44
2024-02-02T01:53:21.849Z,85917.19
2024-02-02T01:55:48.446Z,85912.97
2024-02-02T01:58:15.185Z,85916.38
2024-02-02T02:00:41.922Z,85906.31
2024-02-02T02:03:08.786Z,85911.50
2024-02-02T02:05:37.215Z,85905.50
2024-02-02T02:08:04.137Z,85913.72
2024-02-02T02:10:31.164Z,85910.81
2024-02-02T02:12:57.849Z,85912.97
2024-02-02T02:15:25.508Z,85906.78
2024-02-02T02:17:54.988Z,85903.41
2024-02-02T02:20:27.149Z,85906.19
2024-02-02T02:22:54.798Z,85903.34
2024-02-02T02:25:21.632Z,85906.19
2024-02-02T02:27:48.720Z,85900.59
2024-02-02T02:30:15.491Z,85907.53
2024-02-02T02:32:42.340Z,85901.38
2024-02-02T02:35:09.859Z,85911.47
2024-02-02T02:37:36.933Z,85906.00
2024-02-02T02:40:03.741Z,85908.84
2024-02-02T02:42:30.532Z,85910.06
2024-02-02T02:44:57.243Z,85915.66
2024-02-02T02:47:23.980Z,85912.09
2024-02-02T02:49:50.647Z,85908.81
2024-02-02T02:52:17.385Z,85914.28
2024-02-02T02:54:44.131Z,85917.66
2024-02-02T02:57:10.918Z,85912.22
2024-02-02T02:59:37.639Z,85912.81
2024-02-02T03:02:04.622Z,85908.03
2024-02-02T03:04:31.407Z,85913.56
2024-02-02T03:06:58.368Z,85911.38
2024-02-02T03:09:25.191Z,85916.31
2024-02-02T03:11:52.061Z,85916.22
2024-02-02T03:14:18.702Z,85915.63
2024-02-02T03:16:45.400Z,85915.69
2024-02-02T03:19:12.153Z,85910.16
2024-02-02T03:21:39.511Z,85906.06
2024-02-02T03:26:58.573Z,85903.97
2024-02-02T03:29:25.330Z,85911.47
2024-02-02T03:31:52.043Z,85907.94
2024-02-02T03:34:18.986Z,85903.94
2024-02-02T03:36:45.792Z,85912.84
2024-02-02T03:39:14.165Z,85901.81
2024-02-02T03:41:40.865Z,85910.84
2024-02-02T03:44:07.528Z,85910.59
2024-02-02T03:46:34.234Z,85910.44
2024-02-02T03:49:01.407Z,85908.09
2024-02-02T03:51:28.179Z,85909.63
2024-02-02T03:53:54.990Z,85915.44
2024-02-02T03:56:21.648Z,85918.81
2024-02-02T03:58:48.296Z,85910.06
2024-02-02T04:01:15.044Z,85910.91
2024-02-02T04:03:41.889Z,85912.25
2024-02-02T04:06:09.049Z,85914.06
2024-02-02T04:08:35.744Z,85918.38
2024-02-02T04:11:03.191Z,85910.53
2024-02-02T04:13:29.946Z,85917.34
2024-02-02T04:15:56.735Z,85910.91
2024-02-02T04:18:23.519Z,85906.00
2024-02-02T04:20:50.338Z,85905.91
2024-02-02T04:23:17.466Z,85904.72
2024-02-02T04:25:44.121Z,85894.91
2024-02-02T04:28:10.770Z,85909.91
2024-02-02T04:30:37.518Z,85909.22
2024-02-02T04:33:04.917Z,85910.19
2024-02-02T04:35:36.490Z,85920.56
2024-02-02T04:38:03.512Z,85920.84
2024-02-02T04:40:30.667Z,85912.59
2024-02-02T04:42:57.743Z,85913.69
2024-02-02T04:45:24.549Z,85914.63
2024-02-02T04:47:51.461Z,85905.53
2024-02-02T04:50:18.192Z,85916.34
2024-02-02T04:52:44.910Z,85917.06
2024-02-02T04:55:11.970Z,85916.56
2024-02-02T04:57:38.700Z,85919.50
2024-02-02T05:00:06.263Z,85921.13
2024-02-02T05:02:33.084Z,85914.31
2024-02-02T05:05:00.123Z,85919.38
2024-02-02T05:07:26.922Z,85921.75
2024-02-02T05:09:53.637Z,85925.66
2024-02-02T05:12:20.318Z,85924.13
2024-02-02T05:14:47.027Z,85919.94
2024-02-02T05:17:13.737Z,85922.28
2024-02-02T05:19:40.448Z,85925.03
2024-02-02T05:22:07.167Z,85926.06
2024-02-02T05:24:44.011Z,85925.22
2024-02-02T05:27:13.736Z,85927.75
2024-02-02T05:29:40.812Z,85939.69
2024-02-02T05:32:07.922Z,85928.50
2024-02-02T05:34:34.924Z,85932.94
2024-02-02T05:37:02.310Z,85933.22
2024-02-02T05:39:29.262Z,85941.56
2024-02-02T05:41:56.792Z,85941.78
2024-02-02T05:44:23.524Z,85941.84
2024-02-02T05:46:50.261Z,85946.81
2024-02-02T05:49:17.051Z,85952.53
2024-02-02T05:51:43.829Z,85956.34
2024-02-02T05:54:10.586Z,85956.13
2024-02-02T05:56:37.463Z,85953.06
2024-02-02T05:59:04.675Z,85955.25
2024-02-02T06:01:31.491Z,85958.13
2024-02-02T06:04:00.448Z,85962.50
2024-02-02T06:06:27.770Z,85965.22
2024-02-02T06:08:57.009Z,85958.63
2024-02-02T06:11:25.491Z,85969.72
2024-02-02T06:13:56.272Z,85972.25
2024-02-02T06:16:27.146Z,85974.09
2024-02-02T06:18:54.165Z,85968.47
2024-02-02T06:21:20.950Z,85968.50
2024-02-02T06:23:47.660Z,85970.56
2024-02-02T06:26:14.386Z,85971.06
2024-02-02T06:28:41.092Z,85978.34
2024-02-02T06:31:07.765Z,85979.53
2024-02-02T06:33:34.653Z,85986.84
2024-02-02T06:36:01.542Z,85993.56
2024-02-02T06:38:28.277Z,85984.47
2024-02-02T06:40:54.916Z,85990.94
2024-02-02T06:43:22.201Z,85980.91
2024-02-02T06:45:49.812Z,85993.94
2024-02-02T06:48:16.803Z,85995.16
2024-02-02T06:50:45.334Z,85991.41
2024-02-02T06:53:12.090Z,85994.72
2024-02-02T06:55:38.821Z,85993.81
2024-02-02T06:58:05.560Z,85988.13
2024-02-02T07:00:32.365Z,85987.91
2024-02-02T07:02:59.127Z,85996.41
2024-02-02T07:05:27.426Z,85994.75
2024-02-02T07:07:54.269Z,85999.38
2024-02-02T07:10:21.211Z,85995.19
2024-02-02T07:12:54.525Z,86000.31
2024-02-02T07:15:21.766Z,85996.91
2024-02-02T07:17:48.504Z,85989.69
2024-02-02T07:20:24.654Z,85996.41
2024-02-02T07:23:02.365Z,85990.63
2024-02-02T07:25:29.227Z,85995.09
2024-02-02T07:27:56.203Z,85997.63
2024-02-02T07:30:32.233Z,85997.91
2024-02-02T07:33:02.163Z,85998.81
2024-02-02T07:35:31.235Z,86000.13
2024-02-02T07:37:57.830Z,86010.44
2024-02-02T07:40:43.129Z,85998.38
2024-02-02T07:43:09.937Z,86001.31
2024-02-02T07:45:36.645Z,86006.78
2024-02-02T07:48:03.466Z,86010.50
2024-02-02T07:50:30.403Z,86013.31
2024-02-02T07:52:57.533Z,86020.53
2024-02-02T07:55:24.250Z,86024.50
2024-02-02T07:57:50.870Z,86021.28
2024-02-02T08:00:17.882Z,86020.88
2024-02-02T08:02:44.599Z,86019.53
2024-02-02T08:05:11.254Z,86026.13
2024-02-02T08:07:37.873Z,86013.69
2024-02-02T08:10:05.894Z,86014.59
2024-02-02T08:12:32.670Z,86016.69
2024-02-02T08:14:59.683Z,86022.66
2024-02-02T08:17:26.418Z,86023.81
2024-02-02T08:19:53.276Z,86019.28
2024-02-02T08:22:20.110Z,86022.97
2024-02-02T08:24:46.817Z,86028.44
2024-02-02T08:27:13.505Z,86021.97
2024-02-02T08:29:40.222Z,86025.41
2024-02-02T08:32:07.107Z,86029.75
2024-02-02T08:34:34.002Z,86034.69
2024-02-02T08:37:03.224Z,86039.19
2024-02-02T08:39:31.344Z,86037.59
2024-02-02T08:41:57.935Z,86037.91
2024-02-02T08:44:24.944Z,86031.28
2024-02-02T08:46:51.908Z,86035.34
2024-02-02T08:49:39.101Z,86038.03
2024-02-02T08:52:08.460Z,86033.13
2024-02-02T08:54:38.659Z,86037.63
2024-02-02T08:57:11.674Z,86040.78
2024-02-02T08:59:44.214Z,86040.47
2024-02-02T09:02:14.877Z,86041.72
2024-02-02T09:05:00.554Z,86047.72
2024-02-02T09:07:27.255Z,86044.75
2024-02-02T09:09:54.036Z,86039.19
2024-02-02T09:12:20.809Z,86043.34
2024-02-02T09:14:47.454Z,86045.19
2024-02-02T09:17:14.218Z,86043.03
2024-02-02T09:19:44.137Z,86036.00
2024-02-02T09:22:15.442Z,86034.09
2024-02-02T09:24:45.848Z,86033.13
2024-02-02T09:27:15.854Z,86041.41
2024-02-02T09:29:46.482Z,86035.13
2024-02-02T09:32:13.622Z,86031.66
2024-02-02T09:34:40.488Z,86032.28
2024-02-02T09:37:10.715Z,86031.34
2024-02-02T09:39:49.945Z,86033.66
2024-02-02T09:42:36.928Z,86036.91
2024-02-02T09:45:26.796Z,86032.72
2024-02-02T09:48:11.786Z,86040.13
2024-02-02T09:50:41.632Z,86034.34
2024-02-02T09:53:27.030Z,86034.03
2024-02-02T09:55:56.428Z,86021.00
2024-02-02T09:58:32.310Z,86022.31
2024-02-02T10:01:01.570Z,86023.88
2024-02-02T10:03:31.667Z,86025.88
2024-02-02T10:06:13.803Z,86024.44
2024-02-02T10:08:53.772Z,86027.34
2024-02-02T10:11:35.629Z,86027.84
2024-02-02T10:14:02.835Z,86027.84
2024-02-02T10:16:47.826Z,86021.69
2024-02-02T10:19:17.698Z,86012.00
2024-02-02T10:22:03.377Z,86020.22
2024-02-02T10:24:48.832Z,86009.19
2024-02-02T10:27:21.456Z,86013.22
2024-02-02T10:30:08.295Z,86002.44
2024-02-02T10:32:53.761Z,85994.19
2024-02-02T10:35:20.532Z,86002.38
2024-02-02T10:37:49.316Z,85996.34
2024-02-02T10:40:19.147Z,85998.47
2024-02-02T10:43:04.583Z,85990.84
2024-02-02T10:45:51.252Z,85994.16
2024-02-02T10:48:36.462Z,85987.16
2024-02-02T10:51:06.271Z,85989.28
2024-02-02T10:53:47.340Z,85996.25
2024-02-02T10:56:25.990Z,86000.84
2024-02-02T10:59:11.820Z,86014.66
2024-02-02T11:01:47.781Z,86017.34
2024-02-02T11:04:14.525Z,86011.84
2024-02-02T11:06:48.983Z,86007.13
2024-02-02T11:09:18.944Z,86011.25
2024-02-02T11:11:47.885Z,86004.94
2024-02-02T11:14:43.678Z,86006.38
2024-02-02T11:17:17.100Z,86001.53
2024-02-02T11:19:52.957Z,86007.94
2024-02-02T11:22:21.961Z,86004.41
2024-02-02T11:25:08.244Z,86010.41
2024-02-02T11:27:42.608Z,86009.19
2024-02-02T11:30:09.747Z,86002.31
2024-02-02T11:32:55.314Z,86008.41
2024-02-02T11:35:28.035Z,86013.88
2024-02-02T11:37:54.703Z,86007.72
2024-02-02T11:40:24.241Z,85993.34
2024-02-02T11:42:51.130Z,85992.69
2024-02-02T11:45:18.328Z,86000.16
2024-02-02T11:47:47.701Z,85998.06
2024-02-02T11:50:14.696Z,85984.53
2024-02-02T11:52:42.185Z,85987.19
2024-02-02T11:55:27.652Z,85988.50
2024-02-02T11:57:56.525Z,85985.22
2024-02-02T12:00:29.456Z,85983.06
2024-02-02T12:02:56.184Z,85979.00
2024-02-02T12:05:25.828Z,85979.72
2024-02-02T12:08:00.506Z,85984.41
2024-02-02T12:10:28.762Z,85979.72
2024-02-02T12:13:05.289Z,85982.97
2024-02-02T12:15:31.940Z,85981.66
2024-02-02T12:18:01.272Z,85984.41
2024-02-02T12:20:30.978Z,85980.16
2024-02-02T12:22:57.898Z,85977.59
2024-02-02T12:25:26.405Z,85983.59
2024-02-02T12:27:53.382Z,85982.97
2024-02-02T12:30:20.108Z,85981.66
2024-02-02T12:32:54.738Z,85984.31
2024-02-02T12:35:24.957Z,85988.50
2024-02-02T12:37:52.416Z,85991.19
2024-02-02T12:40:22.153Z,85992.50
2024-02-02T12:42:49.145Z,85992.59
2024-02-02T12:45:16.130Z,85994.00
2024-02-02T12:47:42.762Z,85997.97
2024-02-02T12:50:16.262Z,85997.38
2024-02-02T12:52:43.994Z,85987.13
2024-02-02T12:55:11.081Z,85991.78
2024-02-02T12:57:37.816Z,85998.06
2024-02-02T13:00:08.241Z,85993.19
2024-02-02T13:02:35.002Z,85990.34
2024-02-02T13:05:02.069Z,85985.03
2024-02-02T13:07:29.531Z,85991.03
2024-02-02T13:09:59.187Z,85986.22
2024-02-02T13:12:28.338Z,85986.91
2024-02-02T13:14:55.387Z,85996.50
2024-02-02T13:17:22.103Z,85985.63
2024-02-02T13:19:49.456Z,86004.63
2024-02-02T13:22:19.730Z,86009.63
2024-02-02T13:24:49.669Z,86004.94
2024-02-02T13:27:25.611Z,86002.56
2024-02-02T13:29:58.259Z,86003.38
2024-02-02T13:32:28.256Z,86001.31
2024-02-02T13:34:58.599Z,86002.53
2024-02-02T13:37:31.171Z,86002.63
2024-02-02T13:39:59.947Z,86016.91
2024-02-02T13:42:27.333Z,86018.31
2024-02-02T13:44:54.212Z,86021.19
2024-02-02T13:47:23.719Z,86020.22
2024-02-02T13:49:56.972Z,86018.13
2024-02-02T13:52:25.633Z,86023.19
2024-02-02T13:54:54.426Z,86023.09
2024-02-02T13:57:21.168Z,86029.94
2024-02-02T13:59:47.848Z,86026.50
2024-02-02T14:02:14.607Z,86028.41
2024-02-02T14:04:41.296Z,86027.84
2024-02-02T14:07:14.735Z,86025.75
2024-02-02T14:09:42.530Z,86028.56
2024-02-02T14:12:09.377Z,86029.94
2024-02-02T14:14:36.465Z,86027.84
2024-02-02T14:17:06.301Z,86036.03
2024-02-02T14:19:33.499Z,86034.13
2024-02-02T14:22:06.792Z,86037.28
2024-02-02T14:24:33.773Z,86033.41
2024-02-02T14:27:01.968Z,86040.91
2024-02-02T14:29:38.813Z,86045.50
2024-02-02T14:32:05.607Z,86044.28
2024-02-02T14:34:32.885Z,86047.00
2024-02-02T14:36:59.787Z,86060.03
2024-02-02T14:39:27.762Z,86057.19
2024-02-02T14:41:54.966Z,86061.91
2024-02-02T14:44:21.676Z,86071.47
2024-02-02T14:46:48.356Z,86064.72
2024-02-02T14:49:15.439Z,86058.41
2024-02-02T14:51:42.294Z,86061.31
2024-02-02T14:54:09.606Z,86058.47
2024-02-02T14:56:39.308Z,86057.78
2024-02-02T14:59:14.133Z,86060.28
2024-02-02T15:01:41.130Z,86061.47
2024-02-02T15:04:08.449Z,86069.00
2024-02-02T15:06:35.887Z,86066.88
2024-02-02T15:09:10.084Z,86074.25
2024-02-02T15:11:36.906Z,86077.19
2024-02-02T15:14:03.508Z,86073.41
2024-02-02T15:16:33.517Z,86079.09
2024-02-02T15:19:00.421Z,86071.06
2024-02-02T15:21:27.152Z,86084.50
2024-02-02T15:23:53.834Z,86079.13
2024-02-02T15:26:20.564Z,86083.75
2024-02-02T15:28:47.161Z,86083.00
2024-02-02T15:31:13.918Z,86086.28
2024-02-02T15:36:07.466Z,86088.50
2024-02-02T15:38:34.093Z,86093.81
2024-02-02T15:41:09.768Z,86098.72
2024-02-02T15:43:37.067Z,86102.38
2024-02-02T15:46:04.233Z,86096.72
2024-02-02T15:48:32.513Z,86123.63
2024-02-02T15:51:00.182Z,86105.53
2024-02-02T15:53:27.216Z,86115.78
2024-02-02T15:55:54.213Z,86122.50
2024-02-02T15:58:20.911Z,86118.00
2024-02-02T16:00:47.880Z,86122.25
2024-02-02T16:03:14.524Z,86125.91
2024-02-02T16:05:41.194Z,86138.50
2024-02-02T16:08:08.030Z,86136.41
2024-02-02T16:10:35.400Z,86146.66
2024-02-02T16:13:02.589Z,86143.69
2024-02-02T16:15:29.450Z,86139.38
2024-02-02T16:17:56.241Z,86129.69
2024-02-02T16:20:22.968Z,86144.47
2024-02-02T16:22:49.612Z,86140.41
2024-02-02T16:25:18.431Z,86140.63
2024-02-02T16:27:45.222Z,86137.41
2024-02-02T16:30:13.725Z,86144.84
2024-02-02T16:32:40.549Z,86139.97
2024-02-02T16:35:09.449Z,86151.28
2024-02-02T16:37:39.838Z,86145.25
2024-02-02T16:40:10.143Z,86149.03
2024-02-02T16:42:37.268Z,86145.56
2024-02-02T16:45:04.115Z,86165.09
2024-02-02T16:47:30.959Z,86148.47
2024-02-02T16:49:57.804Z,86152.66
2024-02-02T16:52:24.761Z,86157.31
2024-02-02T16:54:51.645Z,86156.69
2024-02-02T16:57:18.453Z,86162.44
2024-02-02T16:59:45.166Z,86174.41
2024-02-02T17:02:12.055Z,86169.69
2024-02-02T17:04:38.891Z,86175.91
2024-02-02T17:07:08.814Z,86167.34
2024-02-02T17:09:40.105Z,86175.34
2024-02-02T17:12:07.904Z,86173.94
2024-02-02T17:14:34.990Z,86177.94
2024-02-02T17:17:02.683Z,86182.34
2024-02-02T17:19:29.850Z,86181.03
2024-02-02T17:21:56.786Z,86180.09
2024-02-02T17:24:23.763Z,86178.53
2024-02-02T17:26:50.662Z,86183.72
2024-02-02T17:29:18.505Z,86184.47
2024-02-02T17:31:46.790Z,86181.84
2024-02-02T17:34:13.815Z,86191.84
2024-02-02T17:36:41.061Z,86189.09
2024-02-02T17:39:08.062Z,86192.09
2024-02-02T17:41:35.368Z,86198.25
2024-02-02T17:44:02.231Z,86204.94
2024-02-02T17:46:29.123Z,86210.91
2024-02-02T17:48:55.998Z,86201.00
2024-02-02T17:51:23.183Z,86203.09
2024-02-02T17:53:50.235Z,86207.31
2024-02-02T17:56:18.585Z,86213.88
2024-02-02T17:58:45.555Z,86207.72
2024-02-02T18:01:12.561Z,86207.97
2024-02-02T18:03:39.478Z,86210.63
2024-02-02T18:06:06.597Z,86214.66
2024-02-02T18:08:33.595Z,86202.00
2024-02-02T18:11:00.519Z,86211.59
2024-02-02T18:13:27.453Z,86204.53
2024-02-02T18:15:54.298Z,86211.59
2024-02-02T18:18:23.484Z,86197.44
2024-02-02T18:20:50.343Z,86202.41
2024-02-02T18:23:17.076Z,86202.53
2024-02-02T18:25:43.750Z,86205.81
2024-02-02T18:28:14.299Z,86205.81
2024-02-02T18:30:41.569Z,86198.56
2024-02-02T18:33:08.635Z,86195.19
2024-02-02T18:35:35.379Z,86185.28
2024-02-02T18:38:03.534Z,86184.34
2024-02-02T18:40:30.259Z,86182.91
2024-02-02T18:42:57.006Z,86186.53
2024-02-02T18:45:23.759Z,86181.91
2024-02-02T18:47:50.626Z,86174.34
2024-02-02T18:50:17.594Z,86185.25
2024-02-02T18:52:44.305Z,86179.41
2024-02-02T18:55:11.048Z,86180.16
2024-02-02T18:57:37.660Z,86179.84
2024-02-02T19:00:04.761Z,86188.50
2024-02-02T19:02:31.555Z,86193.41
2024-02-02T19:04:58.374Z,86192.25
2024-02-02T19:07:26.864Z,86196.47
2024-02-02T19:09:53.650Z,86188.13
2024-02-02T19:12:20.427Z,86183.25
2024-02-02T19:14:47.081Z,86175.38
2024-02-02T19:17:13.764Z,86181.56
2024-02-02T19:19:40.668Z,86179.91
2024-02-02T19:22:07.495Z,86180.97
2024-02-02T19:24:34.153Z,86180.34
2024-02-02T19:27:00.838Z,86184.66
2024-02-02T19:29:27.464Z,86183.41
2024-02-02T19:31:54.224Z,86184.03
2024-02-02T19:34:21.202Z,86177.75
2024-02-02T19:36:48.197Z,86182.38
2024-02-02T19:39:15.019Z,86185.03
2024-02-02T19:41:41.721Z,86182.13
2024-02-02T19:44:08.337Z,86181.00
2024-02-02T19:46:35.278Z,86172.84
2024-02-02T19:49:02.566Z,86173.69
2024-02-02T19:51:29.606Z,86177.25
2024-02-02T19:53:56.317Z,86184.69
2024-02-02T19:56:23.009Z,86182.63
2024-02-02T19:58:49.722Z,86181.03
2024-02-02T20:01:17.323Z,86187.16
2024-02-02T20:03:44.502Z,86188.28
2024-02-02T20:06:11.359Z,86183.16
2024-02-02T20:08:41.496Z,86186.59
2024-02-02T20:11:16.819Z,86186.09
2024-02-02T20:13:43.694Z,86193.78
2024-02-02T20:16:10.768Z,86189.59
2024-02-02T20:18:37.677Z,86196.47
2024-02-02T20:21:04.615Z,86194.66
2024-02-02T20:23:31.395Z,86192.84
2024-02-02T20:25:58.011Z,86195.03
2024-02-02T20:28:24.717Z,86196.47
2024-02-02T20:30:51.446Z,86189.91
2024-02-02T20:33:18.247Z,86188.97
2024-02-02T20:35:45.124Z,86197.25
2024-02-02T20:38:11.944Z,86193.81
2024-02-02T20:40:38.653Z,86200.63
2024-02-02T20:43:05.504Z,86200.97
2024-02-02T20:45:32.437Z,86210.72
2024-02-02T20:48:01.874Z,86198.56
2024-02-02T20:50:28.669Z,86203.50
2024-02-02T20:52:55.280Z,86206.41
2024-02-02T20:55:22.281Z,86202.13
2024-02-02T20:57:49.414Z,86205.38
2024-02-02T21:00:16.657Z,86205.91
2024-02-02T21:02:43.581Z,86201.41
2024-02-02T21:05:10.763Z,86191.38
2024-02-02T21:07:37.573Z,86193.97
2024-02-02T21:10:07.251Z,86191.69
2024-02-02T21:12:34.197Z,86190.75
2024-02-02T21:15:01.036Z,86201.28
2024-02-02T21:17:27.796Z,86209.38
2024-02-02T21:19:55.988Z,86197.47
2024-02-02T21:22:22.693Z,86203.63
2024-02-02T21:24:49.345Z,86202.13
2024-02-02T21:27:16.184Z,86198.53
2024-02-02T21:29:42.912Z,86190.81
2024-02-02T21:32:09.465Z,86200.28
2024-02-02T21:34:36.251Z,86194.03
2024-02-02T21:37:02.914Z,86183.84
2024-02-02T21:39:29.993Z,86190.72
2024-02-02T21:41:56.603Z,86186.47
2024-02-02T21:44:24.844Z,86178.19
2024-02-02T21:46:51.697Z,86183.53
2024-02-02T21:49:18.531Z,86185.53
2024-02-02T21:51:45.439Z,86187.00
2024-02-02T21:54:13.273Z,86181.09
2024-02-02T21:56:43.472Z,86186.00
2024-02-02T21:59:10.223Z,86186.78
2024-02-02T22:01:40.899Z,86184.50
2024-02-02T22:04:07.668Z,86179.13
2024-02-02T22:06:34.577Z,86179.03
2024-02-02T22:09:02.136Z,86168.28
2024-02-02T22:11:28.850Z,86172.31
2024-02-02T22:13:55.523Z,86175.59
2024-02-02T22:16:22.220Z,86183.47
2024-02-02T22:18:50.271Z,86186.09
2024-02-02T22:21:25.780Z,86175.81
2024-02-02T22:23:52.488Z,86175.91
2024-02-02T22:26:22.193Z,86179.13
2024-02-02T22:28:48.973Z,86180.53
2024-02-02T22:31:21.706Z,86182.25
2024-02-02T22:33:48.746Z,86170.44
2024-02-02T22:36:22.064Z,86180.66
2024-02-02T22:38:49.733Z,86168.94
2024-02-02T22:41:28.915Z,86167.56
2024-02-02T22:44:00.254Z,86160.06
2024-02-02T22:46:26.965Z,86164.88
2024-02-02T22:48:53.722Z,86163.38
2024-02-02T22:51:20.551Z,86167.50
2024-02-02T22:53:47.223Z,86158.47
2024-02-02T22:56:14.002Z,86165.19
2024-02-02T22:58:41.502Z,86169.47
2024-02-02T23:01:08.904Z,86170.66
2024-02-02T23:03:36.009Z,86169.22
2024-02-02T23:06:05.812Z,86165.91
2024-02-02T23:08:32.577Z,86167.91
2024-02-02T23:10:59.356Z,86163.06
2024-02-02T23:13:26.183Z,86157.16
2024-02-02T23:15:54.653Z,86155.03
2024-02-02T23:18:28.049Z,86158.47
2024-02-02T23:20:59.551Z,86148.94
2024-02-02T23:23:26.582Z,86150.91
2024-02-02T23:25:53.302Z,86152.84
2024-02-02T23:28:20.012Z,86152.94
2024-02-02T23:30:47.417Z,86148.75
2024-02-02T23:33:14.365Z,86146.06
2024-02-02T23:35:41.979Z,86147.56
2024-02-02T23:38:09.954Z,86142.66
2024-02-02T23:40:36.626Z,86133.53
2024-02-02T23:43:03.456Z,86136.53
2024-02-02T23:45:30.467Z,86132.34
2024-02-02T23:47:57.193Z,86133.72
2024-02-02T23:50:23.952Z,86133.72
2024-02-02T23:52:50.553Z,86134.47
2024-02-02T23:55:17.303Z,86138.63
2024-02-02T23:57:44.546Z,86132.50
